Altair, Texas
Current Conditions -  °F | °C
As of 2:15 PM on Wednesday 26 Nov 2014 (Local Time) from K66R Reporting Station
Clear Clear  
Wind Chill: 71°   Ceiling: Unl
Heat Index: 71°   Visibility: 10mi
Dew Point: 39°   Wind: 10mph
Humidity: 31%   Direction: 210°SSW
Pressure: 30.17"   Gusts: NA
Location:  29.57°N, 96.45°W
Report Text: K66R 262015Z AUTO 21009KT 10SM CLR 22/04 A3017 RMK AO2 T02180040
Loading
Personal Weather Stations






























Interactive Weather Map New forecast layout! Learn more

10-Day Weather Forecast

Advertisements
Track Severe Weather on mobile